Time;durP1;ratioP1;P1;durP2;ratioP2;P2;SDS_P1;SDS_P2;PMS_P1;PMS_P2;Temp;Humidity;BMP_temperature;BMP_pressure;BME280_temperature;BME280_humidity;BME280_pressure;Samples;Min_cycle;Max_cycle;Signal;HPM_P1;HPM_P2
2023/01/02 00:00:20;;;;;;;103.80;67.33;;;;;;;;;;4367008;32;319471;-89
2023/01/02 00:02:47;;;;;;;104.97;64.77;;;;;;;;;;4376345;32;318663;-90
2023/01/02 00:05:13;;;;;;;111.63;67.53;;;;;;;;;;4374437;32;319180;-90
2023/01/02 00:07:40;;;;;;;123.50;73.80;;;;;;;;;;4365410;32;319198;-91
2023/01/02 00:10:07;;;;;;;168.40;86.83;;;;;;;;;;4376940;32;318656;-91
2023/01/02 00:12:34;;;;;;;191.60;88.40;;;;;;;;;;4366998;32;318513;-91
2023/01/02 00:15:02;;;;;;;154.07;81.63;;;;;;;;;;4375461;32;350925;-91
2023/01/02 00:17:33;;;;;;;128.93;74.43;;;;;;;;;;4364850;32;319206;-91
2023/01/02 00:19:59;;;;;;;138.67;77.10;;;;;;;;;;4374667;32;318559;-91
2023/01/02 00:22:26;;;;;;;142.90;77.20;;;;;;;;;;4365509;32;321880;-92
2023/01/02 00:24:53;;;;;;;130.00;75.57;;;;;;;;;;4378132;32;319224;-91
2023/01/02 00:27:20;;;;;;;149.63;80.13;;;;;;;;;;4374902;32;319233;-91
2023/01/02 00:29:49;;;;;;;141.33;78.43;;;;;;;;;;4379390;32;319345;-91
2023/01/02 00:32:16;;;;;;;137.30;77.13;;;;;;;;;;4366917;32;319233;-89
2023/01/02 00:34:44;;;;;;;116.37;72.30;;;;;;;;;;4375922;32;319100;-91
2023/01/02 00:37:11;;;;;;;133.20;73.00;;;;;;;;;;4376629;32;318597;-91
2023/01/02 00:39:37;;;;;;;162.20;90.43;;;;;;;;;;4365778;32;319421;-92
2023/01/02 00:42:04;;;;;;;240.57;126.57;;;;;;;;;;4375043;32;319853;-91
2023/01/02 00:44:31;;;;;;;248.30;128.63;;;;;;;;;;4367159;32;320366;-92
2023/01/02 00:46:58;;;;;;;230.50;121.93;;;;;;;;;;4376992;32;319609;-90
2023/01/02 00:49:25;;;;;;;231.67;123.90;;;;;;;;;;4367435;32;320364;-90
2023/01/02 00:51:53;;;;;;;211.90;117.53;;;;;;;;;;4374529;32;320006;-92
2023/01/02 00:54:20;;;;;;;217.60;123.20;;;;;;;;;;4366665;32;319385;-91
2023/01/02 00:56:47;;;;;;;240.43;126.63;;;;;;;;;;4375616;32;319565;-91
2023/01/02 00:59:13;;;;;;;226.20;121.83;;;;;;;;;;4375573;32;320378;-91
2023/01/02 01:01:40;;;;;;;209.60;116.00;;;;;;;;;;4363933;32;339911;-90
2023/01/02 01:04:07;;;;;;;211.17;117.23;;;;;;;;;;4375912;32;320352;-91
2023/01/02 01:06:34;;;;;;;206.37;110.03;;;;;;;;;;4366277;32;320135;-91
2023/01/02 01:09:02;;;;;;;220.40;115.83;;;;;;;;;;4376062;32;320324;-91
2023/01/02 01:11:29;;;;;;;214.10;111.83;;;;;;;;;;4365932;32;319525;-91
2023/01/02 01:13:56;;;;;;;214.37;111.83;;;;;;;;;;4375997;32;319642;-92
2023/01/02 01:16:24;;;;;;;219.10;115.13;;;;;;;;;;4365350;32;320370;-92
2023/01/02 01:18:55;;;;;;;210.10;114.03;;;;;;;;;;4378510;32;319735;-91
2023/01/02 01:21:21;;;;;;;228.07;116.80;;;;;;;;;;4366473;32;357805;-91
2023/01/02 01:23:50;;;;;;;217.00;115.27;;;;;;;;;;4379205;32;320638;-90
2023/01/02 01:26:22;;;;;;;219.20;115.87;;;;;;;;;;4369234;32;319720;-92
2023/01/02 01:28:51;;;;;;;229.87;119.10;;;;;;;;;;4378314;32;319357;-91
2023/01/02 01:31:18;;;;;;;227.97;119.03;;;;;;;;;;4369343;32;320460;-90
2023/01/02 01:33:45;;;;;;;298.17;152.07;;;;;;;;;;4377550;32;320701;-91
2023/01/02 01:36:13;;;;;;;307.80;149.23;;;;;;;;;;4377826;32;319719;-90
2023/01/02 01:38:41;;;;;;;281.60;145.33;;;;;;;;;;4368774;32;320200;-91
2023/01/02 01:41:08;;;;;;;276.27;145.50;;;;;;;;;;4376043;32;359457;-91
2023/01/02 01:43:42;;;;;;;276.50;141.90;;;;;;;;;;4367978;32;320490;-91
2023/01/02 01:46:18;;;;;;;272.37;141.57;;;;;;;;;;4378508;32;319452;-91
2023/01/02 01:48:47;;;;;;;250.93;133.67;;;;;;;;;;4365434;32;419163;-91
2023/01/02 01:51:14;;;;;;;238.27;127.43;;;;;;;;;;4376961;32;319672;-91
2023/01/02 01:53:42;;;;;;;225.80;121.53;;;;;;;;;;4365267;32;419410;-91
2023/01/02 01:56:11;;;;;;;238.10;124.10;;;;;;;;;;4377270;32;319740;-91
2023/01/02 01:58:43;;;;;;;216.60;116.67;;;;;;;;;;4367801;32;319573;-91
2023/01/02 02:01:14;;;;;;;205.93;113.87;;;;;;;;;;4376405;32;333093;-92
2023/01/02 02:03:44;;;;;;;206.87;113.40;;;;;;;;;;4363946;32;419269;-91
2023/01/02 02:06:11;;;;;;;180.70;104.87;;;;;;;;;;4376639;32;320218;-91
2023/01/02 02:08:45;;;;;;;166.30;94.67;;;;;;;;;;4366451;32;320681;-91
2023/01/02 02:11:13;;;;;;;144.30;79.30;;;;;;;;;;4376520;32;318878;-92
2023/01/02 02:13:42;;;;;;;140.90;75.53;;;;;;;;;;4367515;32;319508;-90
2023/01/02 02:16:21;;;;;;;115.23;60.80;;;;;;;;;;4376279;32;319628;-91
2023/01/02 02:19:24;;;;;;;91.57;52.20;;;;;;;;;;4363134;32;418483;-91
2023/01/02 02:22:11;;;;;;;103.57;59.57;;;;;;;;;;4363120;32;418111;-90
2023/01/02 02:25:03;;;;;;;105.77;62.03;;;;;;;;;;4366356;32;319079;-91
2023/01/02 02:28:02;;;;;;;97.97;58.47;;;;;;;;;;4365871;32;326045;-90
2023/01/02 02:30:34;;;;;;;122.23;69.80;;;;;;;;;;4366760;32;317845;-90
2023/01/02 02:33:17;;;;;;;154.27;86.00;;;;;;;;;;4377895;32;318728;-90
2023/01/02 02:35:59;;;;;;;153.37;84.23;;;;;;;;;;4364539;32;419970;-91
2023/01/02 02:38:38;;;;;;;142.90;80.97;;;;;;;;;;4367376;32;319397;-90
2023/01/02 02:41:17;;;;;;;138.23;77.13;;;;;;;;;;4376694;32;318731;-90
2023/01/02 02:43:58;;;;;;;119.93;71.87;;;;;;;;;;4363919;32;419070;-90
2023/01/02 02:46:31;;;;;;;122.67;71.47;;;;;;;;;;4365762;32;319492;-91
2023/01/02 02:49:05;;;;;;;123.80;70.20;;;;;;;;;;4377686;32;318307;-90
2023/01/02 02:51:37;;;;;;;116.17;69.07;;;;;;;;;;4367418;32;318538;-90
2023/01/02 02:54:11;;;;;;;115.93;64.87;;;;;;;;;;4377420;32;318406;-90
2023/01/02 02:56:40;;;;;;;123.13;69.60;;;;;;;;;;4366336;32;318450;-90
2023/01/02 02:59:08;;;;;;;123.97;71.23;;;;;;;;;;4376448;32;319231;-91
2023/01/02 03:01:36;;;;;;;122.37;70.63;;;;;;;;;;4364669;32;319716;-91
2023/01/02 03:04:04;;;;;;;157.60;83.27;;;;;;;;;;4375998;32;319629;-90
2023/01/02 03:06:52;;;;;;;174.30;98.07;;;;;;;;;;4366672;32;318803;-89
2023/01/02 03:09:25;;;;;;;177.80;100.07;;;;;;;;;;4364726;32;319651;-89
2023/01/02 03:12:00;;;;;;;187.73;104.73;;;;;;;;;;4374390;32;320473;-91
2023/01/02 03:14:33;;;;;;;200.77;107.10;;;;;;;;;;4365536;32;320653;-90
2023/01/02 03:17:06;;;;;;;200.00;108.87;;;;;;;;;;4373711;32;320593;-90
2023/01/02 03:19:38;;;;;;;220.33;114.20;;;;;;;;;;4363720;32;356978;-90
2023/01/02 03:22:09;;;;;;;217.30;114.40;;;;;;;;;;4373342;32;354115;-91
2023/01/02 03:24:37;;;;;;;204.93;110.00;;;;;;;;;;4366005;32;320766;-90
2023/01/02 03:27:08;;;;;;;196.67;104.77;;;;;;;;;;4376714;32;320403;-90
2023/01/02 03:29:41;;;;;;;195.70;105.00;;;;;;;;;;4367447;32;320273;-89
2023/01/02 03:32:16;;;;;;;159.47;91.33;;;;;;;;;;4383419;32;320119;-90
2023/01/02 03:34:45;;;;;;;213.50;97.07;;;;;;;;;;4369450;32;418032;-91
2023/01/02 03:37:18;;;;;;;198.57;100.70;;;;;;;;;;4376098;32;319242;-91
2023/01/02 03:39:51;;;;;;;178.67;98.40;;;;;;;;;;4362069;32;420033;-90
2023/01/02 03:42:23;;;;;;;185.00;94.33;;;;;;;;;;4361506;32;356712;-89
2023/01/02 03:44:56;;;;;;;174.60;89.80;;;;;;;;;;4374535;32;319863;-90
2023/01/02 03:47:30;;;;;;;163.90;83.17;;;;;;;;;;4366667;32;319195;-90
2023/01/02 03:50:00;;;;;;;128.17;72.33;;;;;;;;;;4376549;32;318597;-90
2023/01/02 03:52:27;;;;;;;133.70;68.73;;;;;;;;;;4366252;32;319268;-90
2023/01/02 03:54:56;;;;;;;135.37;70.53;;;;;;;;;;4376421;32;319415;-90
2023/01/02 03:57:28;;;;;;;126.80;66.00;;;;;;;;;;4364715;32;337925;-90
2023/01/02 04:00:01;;;;;;;135.90;70.30;;;;;;;;;;4374645;32;319314;-90
2023/01/02 04:02:36;;;;;;;164.07;72.77;;;;;;;;;;4364578;32;319171;-90
2023/01/02 04:05:10;;;;;;;120.23;70.43;;;;;;;;;;4375499;32;319512;-90
2023/01/02 04:07:44;;;;;;;132.63;71.37;;;;;;;;;;4364034;32;319552;-90
2023/01/02 04:10:14;;;;;;;131.80;68.10;;;;;;;;;;4375259;32;319753;-90
2023/01/02 04:12:44;;;;;;;135.20;65.33;;;;;;;;;;4361926;32;390207;-90
2023/01/02 04:15:13;;;;;;;124.87;63.77;;;;;;;;;;4374251;32;318818;-90
2023/01/02 04:17:46;;;;;;;123.53;65.97;;;;;;;;;;4364751;32;320269;-90
2023/01/02 04:20:17;;;;;;;118.03;65.27;;;;;;;;;;4376036;32;319780;-90
2023/01/02 04:22:49;;;;;;;122.23;64.63;;;;;;;;;;4362797;32;418067;-90
2023/01/02 04:25:18;;;;;;;146.50;69.97;;;;;;;;;;4369129;32;319365;-90
2023/01/02 04:27:50;;;;;;;127.43;64.57;;;;;;;;;;4380608;32;318460;-90
2023/01/02 04:30:17;;;;;;;117.30;65.40;;;;;;;;;;4375317;32;319023;-89
2023/01/02 04:32:47;;;;;;;130.47;72.90;;;;;;;;;;4381979;32;319626;-90
2023/01/02 04:35:16;;;;;;;171.67;82.07;;;;;;;;;;4380745;32;319336;-88
2023/01/02 04:37:44;;;;;;;169.03;85.77;;;;;;;;;;4368831;32;418166;-89
2023/01/02 04:40:15;;;;;;;170.37;80.20;;;;;;;;;;4377493;32;319619;-90
2023/01/02 04:42:42;;;;;;;156.93;75.83;;;;;;;;;;4364408;32;418279;-89
2023/01/02 04:45:10;;;;;;;154.57;78.90;;;;;;;;;;4376082;32;319636;-89
2023/01/02 04:47:36;;;;;;;171.17;81.47;;;;;;;;;;4366556;32;319167;-89
2023/01/02 04:50:05;;;;;;;158.17;80.67;;;;;;;;;;4376227;32;319346;-90
2023/01/02 04:52:32;;;;;;;142.53;74.70;;;;;;;;;;4366363;32;319214;-90
2023/01/02 04:54:59;;;;;;;143.83;75.57;;;;;;;;;;4377086;32;319292;-87
2023/01/02 04:57:26;;;;;;;165.03;81.93;;;;;;;;;;4366414;32;319403;-89
2023/01/02 04:59:53;;;;;;;162.97;81.83;;;;;;;;;;4376977;32;323927;-88
2023/01/02 05:02:19;;;;;;;193.67;88.77;;;;;;;;;;4366651;32;319001;-89
2023/01/02 05:04:46;;;;;;;167.33;85.00;;;;;;;;;;4375097;32;319549;-90
2023/01/02 05:07:14;;;;;;;169.57;88.27;;;;;;;;;;4374237;32;318701;-90
2023/01/02 05:09:41;;;;;;;190.70;92.83;;;;;;;;;;4362820;32;418277;-90
2023/01/02 05:12:08;;;;;;;185.37;96.17;;;;;;;;;;4374073;32;319052;-90
2023/01/02 05:14:34;;;;;;;204.73;95.87;;;;;;;;;;4366880;32;345452;-90
2023/01/02 05:17:01;;;;;;;204.10;95.00;;;;;;;;;;4378360;32;319232;-91
2023/01/02 05:19:28;;;;;;;185.23;92.23;;;;;;;;;;4368505;32;319231;-91
2023/01/02 05:24:41;;;;;;;233.23;111.77;;;;;;;;;;4367065;32;319721;-90
2023/01/02 05:27:07;;;;;;;226.37;102.23;;;;;;;;;;4375348;32;328668;-90
2023/01/02 05:29:34;;;;;;;216.87;101.47;;;;;;;;;;4365318;32;320008;-89
2023/01/02 05:32:01;;;;;;;193.60;92.87;;;;;;;;;;4374863;32;320204;-90
2023/01/02 05:34:28;;;;;;;209.60;96.77;;;;;;;;;;4363655;32;318712;-90
2023/01/02 05:36:55;;;;;;;213.57;98.63;;;;;;;;;;4373095;32;319558;-88
2023/01/02 05:39:21;;;;;;;209.57;99.80;;;;;;;;;;4364502;32;319422;-90
2023/01/02 05:41:50;;;;;;;200.93;99.93;;;;;;;;;;4373130;32;319403;-90
2023/01/02 05:44:16;;;;;;;208.20;94.07;;;;;;;;;;4381761;32;319489;-89
2023/01/02 05:46:43;;;;;;;230.43;98.07;;;;;;;;;;4376270;32;318711;-90
2023/01/02 05:49:11;;;;;;;212.70;100.57;;;;;;;;;;4384061;32;318411;-90
2023/01/02 05:51:38;;;;;;;218.73;96.73;;;;;;;;;;4369079;32;320221;-90
2023/01/02 05:54:06;;;;;;;205.87;96.83;;;;;;;;;;4375106;32;326793;-90
2023/01/02 05:56:33;;;;;;;211.33;94.30;;;;;;;;;;4362941;32;356066;-90
2023/01/02 05:59:01;;;;;;;210.53;95.93;;;;;;;;;;4373395;32;319036;-90
2023/01/02 06:01:30;;;;;;;214.17;95.70;;;;;;;;;;4364130;32;319196;-90
2023/01/02 06:03:59;;;;;;;193.17;89.07;;;;;;;;;;4375474;32;318795;-90
2023/01/02 06:06:27;;;;;;;200.97;86.03;;;;;;;;;;4366898;32;319369;-91
2023/01/02 06:08:54;;;;;;;193.20;83.97;;;;;;;;;;4375165;32;319662;-90
2023/01/02 06:11:21;;;;;;;194.50;87.37;;;;;;;;;;4365921;32;358457;-90
2023/01/02 06:13:48;;;;;;;195.43;85.07;;;;;;;;;;4375210;32;319322;-90
2023/01/02 06:16:16;;;;;;;176.07;85.67;;;;;;;;;;4376195;32;326934;-90
2023/01/02 06:18:43;;;;;;;177.47;85.67;;;;;;;;;;4362065;32;418636;-90
2023/01/02 06:21:12;;;;;;;187.93;81.50;;;;;;;;;;4376835;32;325661;-90
2023/01/02 06:23:39;;;;;;;180.47;84.00;;;;;;;;;;4366892;32;328333;-90
2023/01/02 06:26:08;;;;;;;226.33;92.53;;;;;;;;;;4376767;32;318798;-91
2023/01/02 06:28:35;;;;;;;184.60;87.03;;;;;;;;;;4366464;32;319322;-90
2023/01/02 06:31:03;;;;;;;170.73;87.03;;;;;;;;;;4376351;32;318940;-90
2023/01/02 06:33:31;;;;;;;177.13;89.80;;;;;;;;;;4366043;32;319927;-91
2023/01/02 06:35:59;;;;;;;201.80;88.83;;;;;;;;;;4376799;32;319286;-91
2023/01/02 06:38:26;;;;;;;233.70;92.67;;;;;;;;;;4366576;32;319490;-90
2023/01/02 06:40:54;;;;;;;219.07;94.13;;;;;;;;;;4375471;32;318945;-91
2023/01/02 06:43:21;;;;;;;200.93;91.60;;;;;;;;;;4365655;32;338820;-89
2023/01/02 06:45:47;;;;;;;218.83;95.57;;;;;;;;;;4376624;32;319353;-90
2023/01/02 06:48:14;;;;;;;211.83;92.63;;;;;;;;;;4376967;32;319132;-90
2023/01/02 06:50:43;;;;;;;216.00;97.97;;;;;;;;;;4365570;32;418575;-91
2023/01/02 06:53:10;;;;;;;205.93;95.83;;;;;;;;;;4375700;32;318872;-90
2023/01/02 06:55:37;;;;;;;226.03;105.23;;;;;;;;;;4366670;32;323939;-90
2023/01/02 06:58:03;;;;;;;197.90;94.40;;;;;;;;;;4376180;32;319570;-91
2023/01/02 07:00:31;;;;;;;209.60;99.23;;;;;;;;;;4365987;32;319499;-90
2023/01/02 07:02:57;;;;;;;205.70;92.20;;;;;;;;;;4376289;32;319382;-90
2023/01/02 07:05:24;;;;;;;204.80;88.10;;;;;;;;;;4366236;32;319515;-90
2023/01/02 07:07:52;;;;;;;186.43;88.83;;;;;;;;;;4374045;32;319456;-90
2023/01/02 07:10:19;;;;;;;196.63;90.13;;;;;;;;;;4366458;32;319213;-89
2023/01/02 07:12:46;;;;;;;220.47;92.83;;;;;;;;;;4373960;32;319388;-89
2023/01/02 07:15:13;;;;;;;211.70;99.90;;;;;;;;;;4375113;32;319188;-91
2023/01/02 07:17:39;;;;;;;227.40;99.50;;;;;;;;;;4365322;32;318697;-89
2023/01/02 07:20:07;;;;;;;215.67;97.87;;;;;;;;;;4376353;32;319325;-90
2023/01/02 07:22:34;;;;;;;265.00;118.37;;;;;;;;;;4364978;32;319075;-89
2023/01/02 07:25:02;;;;;;;256.57;115.60;;;;;;;;;;4374020;32;319512;-89
2023/01/02 07:27:29;;;;;;;304.43;138.70;;;;;;;;;;4364661;32;320576;-91
2023/01/02 07:29:56;;;;;;;328.73;126.33;;;;;;;;;;4373255;32;355589;-89
2023/01/02 07:32:23;;;;;;;294.30;132.77;;;;;;;;;;4365561;32;320336;-88
2023/01/02 07:34:49;;;;;;;380.67;174.40;;;;;;;;;;4375900;32;319978;-89
2023/01/02 07:37:16;;;;;;;347.20;131.37;;;;;;;;;;4365370;32;320457;-86
2023/01/02 07:39:43;;;;;;;285.53;124.87;;;;;;;;;;4373820;32;319777;-88
2023/01/02 07:42:11;;;;;;;319.03;145.33;;;;;;;;;;4373990;32;320192;-90
2023/01/02 07:44:38;;;;;;;403.73;192.77;;;;;;;;;;4364141;32;320361;-89
2023/01/02 07:47:05;;;;;;;345.93;141.60;;;;;;;;;;4374868;32;320338;-88
2023/01/02 07:49:31;;;;;;;265.17;123.47;;;;;;;;;;4365512;32;319818;-88
2023/01/02 07:51:58;;;;;;;258.93;120.60;;;;;;;;;;4375145;32;320672;-89
2023/01/02 07:54:25;;;;;;;226.83;104.57;;;;;;;;;;4364603;32;320433;-89
2023/01/02 07:56:52;;;;;;;217.23;106.30;;;;;;;;;;4373525;32;344400;-90
2023/01/02 07:59:20;;;;;;;201.97;101.10;;;;;;;;;;4363624;32;319518;-88
2023/01/02 08:01:47;;;;;;;220.23;99.50;;;;;;;;;;4374731;32;320457;-89
2023/01/02 08:04:15;;;;;;;199.53;97.10;;;;;;;;;;4374568;32;319503;-88
2023/01/02 08:06:41;;;;;;;178.30;97.53;;;;;;;;;;4367239;32;418549;-88
2023/01/02 08:09:08;;;;;;;184.53;93.47;;;;;;;;;;4375281;32;319226;-89
2023/01/02 08:11:36;;;;;;;184.17;89.90;;;;;;;;;;4363675;32;319118;-88
2023/01/02 08:14:03;;;;;;;188.17;93.93;;;;;;;;;;4375440;32;318761;-89
2023/01/02 08:16:31;;;;;;;310.97;172.43;;;;;;;;;;4364618;32;319192;-89
2023/01/02 08:18:58;;;;;;;233.97;95.43;;;;;;;;;;4374300;32;320379;-90
2023/01/02 08:21:25;;;;;;;234.27;108.57;;;;;;;;;;4364123;32;319363;-87
2023/01/02 08:23:53;;;;;;;212.33;111.87;;;;;;;;;;4374039;32;320516;-88
2023/01/02 08:26:20;;;;;;;272.87;134.97;;;;;;;;;;4363734;32;320559;-89
2023/01/02 08:28:47;;;;;;;632.47;209.27;;;;;;;;;;4373213;32;319443;-88
2023/01/02 08:31:16;;;;;;;489.47;189.80;;;;;;;;;;4374840;32;320701;-88
2023/01/02 08:33:44;;;;;;;220.13;113.83;;;;;;;;;;4361364;32;418214;-89
2023/01/02 08:36:13;;;;;;;210.47;106.90;;;;;;;;;;4373062;32;320438;-88
2023/01/02 08:38:40;;;;;;;210.73;111.03;;;;;;;;;;4364394;32;320366;-88
2023/01/02 08:41:07;;;;;;;218.60;112.83;;;;;;;;;;4373912;32;320487;-88
2023/01/02 08:43:35;;;;;;;240.30;116.87;;;;;;;;;;4363183;32;321034;-89
2023/01/02 08:46:04;;;;;;;228.87;114.57;;;;;;;;;;4373425;32;320223;-89
2023/01/02 08:48:31;;;;;;;233.33;118.20;;;;;;;;;;4364987;32;319680;-89
2023/01/02 08:50:59;;;;;;;246.33;119.00;;;;;;;;;;4374535;32;320676;-88
2023/01/02 08:53:26;;;;;;;276.50;133.00;;;;;;;;;;4363944;32;319556;-88
2023/01/02 08:55:52;;;;;;;268.90;133.07;;;;;;;;;;4374213;32;320192;-89
2023/01/02 08:58:19;;;;;;;285.30;137.50;;;;;;;;;;4363115;32;320329;-89
2023/01/02 09:00:47;;;;;;;298.17;146.00;;;;;;;;;;4372967;32;320204;-88
2023/01/02 09:03:14;;;;;;;277.33;139.80;;;;;;;;;;4373927;32;320315;-88
2023/01/02 09:05:40;;;;;;;284.47;134.07;;;;;;;;;;4364822;32;319835;-83
2023/01/02 09:08:09;;;;;;;285.43;135.90;;;;;;;;;;4371503;32;320525;-85
2023/01/02 09:10:35;;;;;;;266.97;136.70;;;;;;;;;;4362449;32;320325;-84
2023/01/02 09:13:02;;;;;;;282.23;140.90;;;;;;;;;;4370886;32;320409;-84
2023/01/02 09:15:30;;;;;;;293.40;145.17;;;;;;;;;;4361306;32;320572;-84
2023/01/02 09:17:57;;;;;;;312.63;154.07;;;;;;;;;;4370539;32;320535;-84
2023/01/02 09:20:24;;;;;;;320.57;164.90;;;;;;;;;;4362313;32;320602;-85
2023/01/02 09:22:50;;;;;;;313.23;165.00;;;;;;;;;;4372842;32;320799;-87
2023/01/02 09:25:18;;;;;;;325.93;158.70;;;;;;;;;;4361985;32;320423;-89
2023/01/02 09:27:45;;;;;;;327.60;163.83;;;;;;;;;;4373497;32;319481;-92
2023/01/02 09:30:13;;;;;;;341.63;162.97;;;;;;;;;;4373201;32;319712;-87
2023/01/02 09:32:40;;;;;;;393.37;192.33;;;;;;;;;;4363318;32;320403;-88
2023/01/02 09:35:10;;;;;;;402.47;206.20;;;;;;;;;;4372961;32;320107;-87
2023/01/02 09:37:36;;;;;;;374.23;193.77;;;;;;;;;;4362722;32;320668;-87
2023/01/02 09:40:03;;;;;;;382.77;193.67;;;;;;;;;;4375147;32;320280;-88
2023/01/02 09:42:32;;;;;;;347.07;177.10;;;;;;;;;;4366159;32;320834;-87
2023/01/02 09:45:02;;;;;;;329.27;172.23;;;;;;;;;;4377576;32;320448;-88
2023/01/02 09:47:29;;;;;;;383.93;192.20;;;;;;;;;;4364989;32;320377;-87
2023/01/02 09:50:00;;;;;;;379.63;203.33;;;;;;;;;;4373927;32;361206;-87
2023/01/02 09:52:30;;;;;;;349.27;189.63;;;;;;;;;;4365820;32;319649;-86
2023/01/02 09:54:57;;;;;;;350.23;188.23;;;;;;;;;;4375791;32;320297;-87
2023/01/02 09:57:34;;;;;;;350.13;174.50;;;;;;;;;;4365466;32;320389;-86
2023/01/02 10:00:08;;;;;;;327.03;173.80;;;;;;;;;;4374080;32;320671;-86
2023/01/02 10:02:48;;;;;;;353.50;189.67;;;;;;;;;;4365511;32;320311;-87
2023/01/02 10:05:46;;;;;;;346.13;187.03;;;;;;;;;;4375071;32;320453;-86
2023/01/02 10:08:23;;;;;;;366.77;196.50;;;;;;;;;;4372416;32;420371;-87
2023/01/02 10:11:00;;;;;;;358.10;195.03;;;;;;;;;;4362836;32;422328;-87
2023/01/02 10:13:33;;;;;;;372.13;197.77;;;;;;;;;;4364998;32;338952;-87
2023/01/02 10:16:03;;;;;;;382.87;200.27;;;;;;;;;;4376160;32;319582;-87
2023/01/02 10:18:35;;;;;;;369.37;197.83;;;;;;;;;;4364084;32;320450;-86
2023/01/02 10:21:05;;;;;;;348.00;176.73;;;;;;;;;;4374695;32;320447;-87
2023/01/02 10:23:37;;;;;;;313.80;169.33;;;;;;;;;;4383799;32;320176;-86
2023/01/02 10:26:07;;;;;;;292.10;160.83;;;;;;;;;;4379053;32;320284;-87
2023/01/02 10:28:39;;;;;;;341.77;177.53;;;;;;;;;;4366121;32;320504;-87
2023/01/02 10:31:14;;;;;;;483.90;239.30;;;;;;;;;;4374160;32;320488;-87
2023/01/02 10:33:46;;;;;;;344.37;169.50;;;;;;;;;;4365434;32;320552;-87
2023/01/02 10:36:23;;;;;;;313.90;170.17;;;;;;;;;;4374900;32;320241;-87
2023/01/02 10:38:50;;;;;;;334.67;177.67;;;;;;;;;;4362203;32;419560;-87
2023/01/02 10:41:18;;;;;;;290.00;161.33;;;;;;;;;;4363738;32;320245;-86
2023/01/02 10:43:52;;;;;;;255.40;139.13;;;;;;;;;;4375136;32;320171;-87
2023/01/02 10:46:20;;;;;;;183.10;112.10;;;;;;;;;;4365364;32;320270;-87
2023/01/02 10:48:49;;;;;;;159.07;90.30;;;;;;;;;;4374746;32;319583;-88
2023/01/02 10:51:17;;;;;;;140.23;82.03;;;;;;;;;;4373507;32;334172;-88
2023/01/02 10:53:59;;;;;;;137.07;83.53;;;;;;;;;;4360965;32;418518;-87
2023/01/02 10:56:26;;;;;;;139.60;80.37;;;;;;;;;;4363822;32;319241;-87
2023/01/02 10:58:53;;;;;;;137.30;76.73;;;;;;;;;;4376578;32;319445;-85
2023/01/02 11:01:22;;;;;;;94.20;58.33;;;;;;;;;;4368019;32;323469;-85
2023/01/02 11:04:09;;;;;;;97.33;57.13;;;;;;;;;;4378126;32;318405;-88
2023/01/02 11:06:48;;;;;;;155.80;76.60;;;;;;;;;;4372508;32;324942;-86
2023/01/02 11:09:19;;;;;;;95.40;59.03;;;;;;;;;;4376436;32;318417;-87
2023/01/02 11:11:49;;;;;;;106.60;63.37;;;;;;;;;;4365042;32;417651;-87
2023/01/02 11:14:20;;;;;;;156.90;78.87;;;;;;;;;;4379322;32;319336;-86
2023/01/02 11:16:49;;;;;;;249.83;121.97;;;;;;;;;;4379283;32;319354;-85
2023/01/02 11:19:19;;;;;;;110.43;67.50;;;;;;;;;;4379214;32;319627;-86
2023/01/02 11:21:47;;;;;;;110.57;69.50;;;;;;;;;;4365131;32;419475;-84
2023/01/02 11:24:18;;;;;;;899.03;524.43;;;;;;;;;;4374617;32;320303;-86
2023/01/02 11:26:47;;;;;;;188.07;115.30;;;;;;;;;;4361982;32;420358;-87
2023/01/02 11:29:17;;;;;;;157.50;103.70;;;;;;;;;;4375160;32;321242;-85
2023/01/02 11:31:45;;;;;;;192.07;127.23;;;;;;;;;;4362238;32;420772;-87
2023/01/02 11:34:21;;;;;;;190.03;121.83;;;;;;;;;;4374876;32;321343;-88
2023/01/02 11:37:05;;;;;;;270.57;175.53;;;;;;;;;;4361287;32;420149;-87
2023/01/02 11:39:33;;;;;;;216.17;133.90;;;;;;;;;;4364605;32;321361;-88
2023/01/02 11:45:03;;;;;;;389.17;212.30;;;;;;;;;;4361348;32;392177;-88
2023/01/02 11:47:33;;;;;;;426.37;217.80;;;;;;;;;;4363925;32;321496;-88
2023/01/02 11:50:02;;;;;;;291.73;161.00;;;;;;;;;;4374219;32;320742;-88
2023/01/02 11:52:37;;;;;;;274.90;156.70;;;;;;;;;;4364249;32;321408;-86
2023/01/02 11:55:13;;;;;;;249.23;149.43;;;;;;;;;;4373972;32;320462;-87
2023/01/02 11:57:49;;;;;;;237.60;142.40;;;;;;;;;;4362718;32;319788;-86
2023/01/02 12:00:18;;;;;;;249.50;150.00;;;;;;;;;;4373767;32;319752;-86
2023/01/02 12:02:47;;;;;;;220.87;135.73;;;;;;;;;;4360001;32;421274;-87
2023/01/02 12:05:20;;;;;;;230.90;135.93;;;;;;;;;;4373468;32;319751;-87
2023/01/02 12:07:54;;;;;;;206.30;122.77;;;;;;;;;;4360918;32;419232;-87
2023/01/02 12:10:32;;;;;;;195.30;120.13;;;;;;;;;;4363475;32;320347;-87
2023/01/02 12:13:15;;;;;;;190.67;109.87;;;;;;;;;;4373573;32;320406;-86
2023/01/02 12:16:10;;;;;;;165.07;102.60;;;;;;;;;;4360672;32;420303;-87
2023/01/02 12:18:59;;;;;;;175.17;101.70;;;;;;;;;;4348217;32;356113;-87
2023/01/02 12:21:35;;;;;;;180.17;109.57;;;;;;;;;;4362282;32;320330;-87
2023/01/02 12:24:34;;;;;;;179.03;108.47;;;;;;;;;;4373812;32;319464;-88
2023/01/02 12:27:08;;;;;;;156.77;98.30;;;;;;;;;;4359035;32;420448;-87
2023/01/02 12:29:56;;;;;;;159.20;99.17;;;;;;;;;;4363462;32;319616;-87
2023/01/02 12:32:50;;;;;;;156.23;100.63;;;;;;;;;;4363540;32;323967;-87
2023/01/02 12:35:30;;;;;;;147.80;92.60;;;;;;;;;;4363383;32;320476;-87
2023/01/02 12:38:00;;;;;;;148.00;93.77;;;;;;;;;;4373888;32;319303;-86
2023/01/02 12:40:47;;;;;;;131.90;86.07;;;;;;;;;;4365181;32;359919;-87
2023/01/02 12:43:46;;;;;;;105.40;70.60;;;;;;;;;;4374530;32;318542;-87
2023/01/02 12:46:26;;;;;;;116.20;67.07;;;;;;;;;;4370379;32;389371;-87
2023/01/02 12:49:06;;;;;;;105.83;66.10;;;;;;;;;;4359808;32;419311;-87
2023/01/02 12:51:41;;;;;;;88.87;58.60;;;;;;;;;;4361431;32;347194;-86
2023/01/02 12:54:33;;;;;;;78.00;50.93;;;;;;;;;;4373894;32;317452;-86
2023/01/02 12:57:08;;;;;;;87.87;57.40;;;;;;;;;;4361186;32;418327;-87
2023/01/02 13:00:19;;;;;;;81.47;52.97;;;;;;;;;;4362412;32;319415;-86
2023/01/02 13:03:15;;;;;;;75.57;44.77;;;;;;;;;;4360288;32;418844;-87
2023/01/02 13:05:46;;;;;;;85.57;52.57;;;;;;;;;;4357845;32;420313;-87
2023/01/02 13:08:18;;;;;;;85.27;52.23;;;;;;;;;;4391114;32;319053;-86
2023/01/02 13:10:48;;;;;;;94.00;57.50;;;;;;;;;;4358947;32;419117;-88
2023/01/02 13:13:18;;;;;;;79.10;49.03;;;;;;;;;;4374373;32;318671;-85
2023/01/02 13:15:49;;;;;;;77.53;49.60;;;;;;;;;;4361941;32;419327;-85
2023/01/02 13:18:23;;;;;;;72.07;44.57;;;;;;;;;;4374974;32;341370;-85
2023/01/02 13:20:55;;;;;;;68.23;39.93;;;;;;;;;;4363189;32;419586;-85
2023/01/02 13:23:32;;;;;;;68.63;41.47;;;;;;;;;;4365478;32;319235;-86
2023/01/02 13:26:03;;;;;;;61.73;38.77;;;;;;;;;;4376009;32;319120;-86
2023/01/02 13:28:30;;;;;;;59.73;37.20;;;;;;;;;;4366208;32;319350;-84
2023/01/02 13:31:04;;;;;;;54.43;35.90;;;;;;;;;;4376488;32;318932;-85
2023/01/02 13:33:36;;;;;;;61.60;41.00;;;;;;;;;;4368487;32;319546;-85
2023/01/02 13:36:15;;;;;;;59.20;38.30;;;;;;;;;;4379737;32;318576;-85
2023/01/02 13:38:44;;;;;;;50.97;34.77;;;;;;;;;;4368141;32;418258;-85
2023/01/02 13:41:16;;;;;;;54.67;34.97;;;;;;;;;;4381864;32;357844;-86
2023/01/02 13:43:49;;;;;;;51.03;33.33;;;;;;;;;;4367489;32;418109;-86
2023/01/02 13:46:22;;;;;;;75.20;39.33;;;;;;;;;;4376843;32;319381;-84
2023/01/02 13:48:53;;;;;;;48.70;32.50;;;;;;;;;;4362396;32;418333;-86
2023/01/02 13:51:23;;;;;;;49.37;32.23;;;;;;;;;;4365804;32;319361;-86
2023/01/02 13:53:51;;;;;;;51.67;34.47;;;;;;;;;;4375613;32;318406;-86
2023/01/02 13:56:21;;;;;;;52.57;35.33;;;;;;;;;;4364266;32;319359;-86
2023/01/02 13:58:50;;;;;;;64.07;41.60;;;;;;;;;;4376562;32;319206;-87
2023/01/02 14:01:41;;;;;;;87.30;47.43;;;;;;;;;;4366445;32;318525;-84
2023/01/02 14:04:26;;;;;;;110.27;58.20;;;;;;;;;;4374726;32;319116;-86
2023/01/02 14:07:15;;;;;;;97.50;61.10;;;;;;;;;;4361828;32;419777;-86
2023/01/02 14:10:02;;;;;;;103.97;59.93;;;;;;;;;;4361483;32;420946;-85
2023/01/02 14:12:31;;;;;;;100.87;60.30;;;;;;;;;;4364338;32;320454;-85
2023/01/02 14:14:57;;;;;;;101.63;64.80;;;;;;;;;;4374380;32;319438;-86